createdAt,value
2017-06-17T00:00:16.523Z,56.20
2017-06-17T00:02:44.044Z,56.10
2017-06-17T00:05:11.582Z,56.30
2017-06-17T00:07:39.103Z,56.20
2017-06-17T00:10:07.407Z,57.50
2017-06-17T00:12:34.929Z,57.00
2017-06-17T00:15:02.471Z,57.60
2017-06-17T00:17:29.997Z,58.20
2017-06-17T00:19:57.536Z,58.40
2017-06-17T00:22:25.079Z,59.30
2017-06-17T00:24:52.600Z,60.10
2017-06-17T00:27:20.139Z,61.00
2017-06-17T00:29:47.662Z,61.60
2017-06-17T00:32:15.204Z,62.80
2017-06-17T00:34:42.727Z,62.80
2017-06-17T00:37:10.338Z,63.40
2017-06-17T00:39:37.883Z,63.60
2017-06-17T00:42:05.407Z,63.60
2017-06-17T00:44:32.955Z,63.50
2017-06-17T00:47:01.246Z,62.80
2017-06-17T00:49:28.790Z,62.80
2017-06-17T00:51:56.314Z,62.70
2017-06-17T00:54:23.855Z,63.20
2017-06-17T00:56:51.375Z,63.40
2017-06-17T00:59:18.933Z,63.30
2017-06-17T01:01:46.455Z,63.70
2017-06-17T01:04:13.978Z,64.20
2017-06-17T01:06:42.286Z,65.50
2017-06-17T01:09:09.810Z,65.40
2017-06-17T01:11:37.350Z,65.80
2017-06-17T01:14:04.871Z,66.70
2017-06-17T01:16:32.412Z,66.40
2017-06-17T01:18:59.936Z,67.20
2017-06-17T01:21:27.480Z,67.40
2017-06-17T01:23:55.011Z,67.40
2017-06-17T01:26:22.550Z,67.60
2017-06-17T01:28:50.071Z,67.10
2017-06-17T01:31:18.154Z,66.80
2017-06-17T01:33:45.679Z,65.60
2017-06-17T01:36:13.206Z,65.90
2017-06-17T01:38:40.752Z,66.80
2017-06-17T01:41:09.047Z,68.00
2017-06-17T01:43:36.587Z,67.90
2017-06-17T01:46:04.112Z,66.80
2017-06-17T01:48:31.658Z,66.70
2017-06-17T01:50:59.186Z,67.90
2017-06-17T01:53:26.736Z,68.40
2017-06-17T01:55:54.264Z,67.60
2017-06-17T01:58:22.587Z,69.00
2017-06-17T02:00:50.115Z,68.80
2017-06-17T02:03:17.647Z,69.60
2017-06-17T02:05:45.957Z,69.20
2017-06-17T02:08:13.478Z,68.90
2017-06-17T02:10:41.019Z,68.90
2017-06-17T02:13:08.546Z,68.30
2017-06-17T02:15:36.086Z,68.90
2017-06-17T02:18:04.389Z,70.60
2017-06-17T02:20:31.936Z,70.60
2017-06-17T02:22:59.469Z,69.90
2017-06-17T02:25:27.794Z,71.50
2017-06-17T02:27:55.323Z,71.50
2017-06-17T02:30:22.855Z,70.60
2017-06-17T02:32:50.407Z,71.20
2017-06-17T02:35:17.930Z,71.50
2017-06-17T02:37:45.470Z,71.10
2017-06-17T02:40:13.006Z,69.90
2017-06-17T02:42:40.547Z,70.00
2017-06-17T02:45:08.071Z,70.00
2017-06-17T02:47:36.380Z,68.80
2017-06-17T02:50:03.911Z,68.80
2017-06-17T02:52:31.466Z,68.80
2017-06-17T02:54:58.983Z,71.20
2017-06-17T02:57:26.504Z,72.20
2017-06-17T02:59:54.870Z,71.50
2017-06-17T03:02:22.386Z,71.50
2017-06-17T03:04:49.933Z,72.10
2017-06-17T03:07:17.453Z,71.10
2017-06-17T03:09:44.998Z,72.60
2017-06-17T03:12:13.299Z,74.60
2017-06-17T03:14:40.839Z,74.50
2017-06-17T03:17:08.358Z,74.30
2017-06-17T03:19:35.920Z,73.10
2017-06-17T03:22:03.446Z,73.20
2017-06-17T03:24:30.972Z,72.90
2017-06-17T03:26:58.506Z,72.70
2017-06-17T03:29:26.031Z,70.80
2017-06-17T03:31:53.575Z,70.50
2017-06-17T03:34:21.094Z,71.30
2017-06-17T03:36:48.658Z,72.10
2017-06-17T03:39:16.183Z,73.00
2017-06-17T03:41:43.727Z,73.00
2017-06-17T03:44:11.251Z,71.30
2017-06-17T03:46:38.771Z,70.00
2017-06-17T03:49:06.315Z,70.00
2017-06-17T03:51:33.843Z,70.10
2017-06-17T03:54:02.157Z,68.10
2017-06-17T03:56:29.730Z,68.00
2017-06-17T03:58:57.276Z,67.10
2017-06-17T04:01:24.804Z,64.80
2017-06-17T04:03:52.371Z,64.80
2017-06-17T04:06:19.899Z,65.50
2017-06-17T04:08:47.432Z,66.10
2017-06-17T04:11:14.980Z,67.00
2017-06-17T04:13:42.503Z,66.40
2017-06-17T04:16:10.049Z,65.50
2017-06-17T04:18:37.578Z,64.80
2017-06-17T04:21:05.126Z,64.10
2017-06-17T04:23:32.651Z,63.70
2017-06-17T04:26:00.212Z,64.40
2017-06-17T04:28:27.735Z,64.80
2017-06-17T04:30:55.267Z,64.70
2017-06-17T04:33:23.583Z,65.00
2017-06-17T04:35:51.109Z,65.00
2017-06-17T04:38:19.419Z,63.10
2017-06-17T04:40:46.943Z,62.90
2017-06-17T04:43:15.256Z,61.50
2017-06-17T04:45:42.783Z,61.50
2017-06-17T04:48:10.326Z,62.20
2017-06-17T04:50:37.850Z,61.70
2017-06-17T04:53:05.394Z,60.30
2017-06-17T04:55:32.915Z,59.70
2017-06-17T04:58:00.440Z,58.70
2017-06-17T05:00:27.989Z,58.60
2017-06-17T05:02:56.274Z,56.90
2017-06-17T05:05:23.819Z,56.80
2017-06-17T05:07:52.586Z,53.90
2017-06-17T05:10:20.127Z,53.50
2017-06-17T05:12:47.648Z,52.00
2017-06-17T05:15:15.203Z,51.40
2017-06-17T05:17:42.731Z,51.40
2017-06-17T05:20:10.256Z,50.70
2017-06-17T05:22:38.562Z,49.80
2017-06-17T05:25:06.092Z,49.60
2017-06-17T05:27:33.646Z,49.30
2017-06-17T05:30:01.178Z,48.10
2017-06-17T05:32:28.725Z,47.80
2017-06-17T05:34:56.251Z,45.50
2017-06-17T05:37:23.796Z,44.80
2017-06-17T05:39:51.323Z,45.20
2017-06-17T05:42:18.883Z,44.00
2017-06-17T05:44:46.403Z,43.70
2017-06-17T05:47:13.927Z,42.90
2017-06-17T05:49:41.474Z,43.10
2017-06-17T05:52:09.763Z,46.10
2017-06-17T05:54:37.307Z,46.10
2017-06-17T05:57:04.831Z,46.30
2017-06-17T05:59:32.378Z,43.30
2017-06-17T06:01:59.898Z,41.80
2017-06-17T06:04:27.439Z,43.30
2017-06-17T06:06:54.968Z,42.80
2017-06-17T06:09:22.528Z,44.80
2017-06-17T06:11:50.056Z,46.40
2017-06-17T06:14:17.579Z,48.80
2017-06-17T06:16:45.123Z,50.50
2017-06-17T06:19:12.648Z,52.10
2017-06-17T06:21:40.960Z,51.50
2017-06-17T06:24:08.488Z,51.50
2017-06-17T06:26:36.794Z,49.30
2017-06-17T06:29:04.319Z,49.20
2017-06-17T06:31:31.864Z,48.70
2017-06-17T06:33:59.386Z,49.30
2017-06-17T06:36:26.926Z,50.60
2017-06-17T06:38:55.220Z,50.70
2017-06-17T06:41:22.763Z,50.70
2017-06-17T06:43:51.048Z,51.40
2017-06-17T06:46:19.341Z,52.30
2017-06-17T06:48:46.886Z,52.30
2017-06-17T06:51:15.175Z,51.50
2017-06-17T06:53:42.723Z,51.50
2017-06-17T06:56:11.011Z,51.70
2017-06-17T06:58:38.563Z,51.70
2017-06-17T07:01:06.091Z,52.00
2017-06-17T07:03:34.383Z,51.50
2017-06-17T07:06:01.933Z,51.70
2017-06-17T07:08:29.460Z,51.60
2017-06-17T07:10:57.770Z,52.20
2017-06-17T07:13:25.300Z,52.20
2017-06-17T07:15:54.425Z,50.90
2017-06-17T07:18:22.715Z,50.10
2017-06-17T07:20:51.038Z,49.80
2017-06-17T07:23:18.563Z,49.80
2017-06-17T07:25:46.086Z,47.60
2017-06-17T07:28:13.631Z,47.00
2017-06-17T07:30:41.155Z,46.10
2017-06-17T07:33:08.704Z,46.90
2017-06-17T07:35:36.231Z,47.60
2017-06-17T07:38:03.771Z,48.50
2017-06-17T07:40:31.297Z,47.80
2017-06-17T07:42:58.855Z,48.20
2017-06-17T07:45:26.379Z,48.10
2017-06-17T07:47:53.902Z,49.30
2017-06-17T07:50:21.447Z,46.70
2017-06-17T07:52:48.971Z,46.40
2017-06-17T07:55:16.516Z,47.10
2017-06-17T07:57:44.043Z,45.80
2017-06-17T08:00:11.586Z,44.80
2017-06-17T08:02:39.111Z,44.40
2017-06-17T08:05:07.428Z,44.60
2017-06-17T08:07:35.722Z,45.10
2017-06-17T08:10:04.010Z,42.30
2017-06-17T08:12:31.604Z,42.30
2017-06-17T08:14:59.131Z,39.80
2017-06-17T08:17:26.676Z,41.80
2017-06-17T08:19:54.202Z,43.00
2017-06-17T08:22:21.748Z,41.40
2017-06-17T08:24:50.039Z,40.30
2017-06-17T08:27:17.582Z,40.40
2017-06-17T08:29:45.104Z,41.40
2017-06-17T08:32:12.663Z,39.10
2017-06-17T08:34:40.187Z,38.60
2017-06-17T08:37:08.482Z,42.50
2017-06-17T08:39:36.024Z,42.50
2017-06-17T08:42:03.551Z,42.80
2017-06-17T08:44:31.096Z,44.00
2017-06-17T08:46:58.620Z,44.80
2017-06-17T08:49:26.163Z,44.30
2017-06-17T08:51:54.451Z,43.10
2017-06-17T08:54:21.992Z,43.00
2017-06-17T08:56:49.512Z,44.90
2017-06-17T08:59:17.843Z,47.20
2017-06-17T09:01:45.372Z,46.70
2017-06-17T09:04:12.899Z,47.50
2017-06-17T09:06:40.439Z,48.40
2017-06-17T09:09:07.971Z,47.70
2017-06-17T09:11:35.519Z,46.90
2017-06-17T09:14:03.043Z,47.00
2017-06-17T09:16:30.584Z,47.60
2017-06-17T09:18:58.108Z,47.70
2017-06-17T09:21:26.415Z,47.00
2017-06-17T09:23:53.932Z,47.00
2017-06-17T09:26:21.476Z,47.20
2017-06-17T09:28:48.995Z,48.50
2017-06-17T09:31:16.542Z,47.70
2017-06-17T09:33:44.830Z,47.10
2017-06-17T09:36:12.359Z,47.10
2017-06-17T09:38:39.900Z,47.10
2017-06-17T09:41:09.156Z,47.90
2017-06-17T09:43:37.470Z,46.50
2017-06-17T09:46:04.995Z,46.50
2017-06-17T09:48:33.307Z,48.50
2017-06-17T09:51:00.826Z,48.50
2017-06-17T09:53:28.371Z,46.90
2017-06-17T09:55:56.129Z,45.60
2017-06-17T09:58:23.672Z,45.50
2017-06-17T10:00:51.979Z,43.70
2017-06-17T10:03:19.530Z,43.60
2017-06-17T10:05:47.071Z,44.40
2017-06-17T10:08:14.598Z,41.90
2017-06-17T10:10:42.139Z,42.80
2017-06-17T10:13:09.663Z,42.00
2017-06-17T10:15:37.187Z,40.20
2017-06-17T10:18:04.742Z,38.60
2017-06-17T10:20:32.264Z,39.90
2017-06-17T10:22:59.808Z,40.20
2017-06-17T10:25:27.330Z,41.00
2017-06-17T10:27:54.907Z,42.20
2017-06-17T10:30:23.204Z,44.10
2017-06-17T10:32:50.731Z,44.10
2017-06-17T10:35:19.048Z,43.50
2017-06-17T10:37:46.576Z,42.70
2017-06-17T10:40:14.903Z,43.50
2017-06-17T10:42:42.424Z,43.50
2017-06-17T10:45:09.947Z,43.00
2017-06-17T10:47:38.260Z,45.80
2017-06-17T10:50:05.783Z,45.70
2017-06-17T10:52:33.328Z,45.90
2017-06-17T10:55:00.856Z,46.00
2017-06-17T10:57:28.383Z,46.10
2017-06-17T10:59:55.928Z,46.30
2017-06-17T11:02:23.495Z,46.50
2017-06-17T11:04:51.806Z,47.80
2017-06-17T11:07:19.330Z,47.80
2017-06-17T11:09:47.642Z,48.80
2017-06-17T11:12:15.163Z,48.70
2017-06-17T11:14:42.722Z,49.00
2017-06-17T11:17:11.014Z,50.80
2017-06-17T11:19:39.303Z,49.40
2017-06-17T11:22:06.846Z,49.50
2017-06-17T11:24:35.136Z,48.40
2017-06-17T11:27:02.683Z,48.40
2017-06-17T11:29:30.971Z,49.50
2017-06-17T11:31:58.523Z,49.40
2017-06-17T11:34:26.050Z,49.00
2017-06-17T11:36:54.340Z,48.90
2017-06-17T11:39:21.887Z,49.00
2017-06-17T11:41:49.419Z,48.70
2017-06-17T11:44:17.738Z,49.60
2017-06-17T11:46:45.271Z,49.10
2017-06-17T11:49:13.582Z,50.00
2017-06-17T11:51:41.112Z,49.90
2017-06-17T11:54:08.707Z,50.50
2017-06-17T11:56:36.237Z,50.50
2017-06-17T11:59:04.560Z,51.50
2017-06-17T12:01:32.083Z,51.50
2017-06-17T12:03:59.613Z,51.10
2017-06-17T12:06:27.155Z,51.20
2017-06-17T12:08:54.684Z,50.60
2017-06-17T12:11:22.226Z,51.20
2017-06-17T12:13:49.748Z,50.60
2017-06-17T12:16:17.291Z,50.70
2017-06-17T12:18:44.815Z,50.70
2017-06-17T12:21:12.355Z,51.20
2017-06-17T12:23:39.883Z,50.20
2017-06-17T12:26:07.444Z,50.00
2017-06-17T12:28:34.963Z,50.60
2017-06-17T12:31:03.253Z,51.10
2017-06-17T12:33:30.794Z,51.10
2017-06-17T12:35:59.083Z,51.30
2017-06-17T12:38:26.633Z,51.20
2017-06-17T12:40:54.924Z,50.60
2017-06-17T12:43:22.478Z,50.60
2017-06-17T12:45:50.771Z,51.00
2017-06-17T12:48:18.316Z,51.00
2017-06-17T12:50:46.604Z,51.80
2017-06-17T12:53:14.163Z,51.80
2017-06-17T12:55:41.695Z,51.80
2017-06-17T12:58:09.987Z,51.80
2017-06-17T13:00:38.295Z,51.80
2017-06-17T13:03:05.823Z,51.80
2017-06-17T13:05:34.136Z,51.50
2017-06-17T13:08:01.664Z,51.50
2017-06-17T13:10:29.206Z,51.10
2017-06-17T13:12:56.727Z,52.10
2017-06-17T13:15:24.271Z,52.30
2017-06-17T13:17:51.795Z,52.40
2017-06-17T13:20:19.352Z,52.40
2017-06-17T13:22:47.641Z,52.60
2017-06-17T13:25:15.163Z,52.60
2017-06-17T13:27:43.483Z,52.90
2017-06-17T13:30:11.007Z,52.90
2017-06-17T13:32:39.320Z,52.10
2017-06-17T13:35:06.847Z,52.10
2017-06-17T13:37:34.392Z,52.70
2017-06-17T13:40:01.915Z,52.60
2017-06-17T13:42:30.226Z,52.50
2017-06-17T13:44:57.752Z,52.50
2017-06-17T13:47:25.317Z,51.90
2017-06-17T13:49:53.611Z,51.90
2017-06-17T13:52:21.143Z,51.90
2017-06-17T13:54:48.692Z,52.60
2017-06-17T13:57:16.217Z,52.50
2017-06-17T13:59:43.763Z,53.20
2017-06-17T14:02:11.290Z,53.60
2017-06-17T14:04:38.852Z,53.70
2017-06-17T14:07:06.382Z,53.90
2017-06-17T14:09:34.675Z,54.60
2017-06-17T14:12:02.218Z,54.50
2017-06-17T14:14:30.508Z,55.50
2017-06-17T14:16:58.835Z,54.80
2017-06-17T14:19:26.363Z,54.70
2017-06-17T14:21:59.563Z,55.80
2017-06-17T14:24:27.093Z,56.30
2017-06-17T14:26:55.422Z,55.90
2017-06-17T14:29:22.945Z,55.30
2017-06-17T14:31:51.239Z,55.40
2017-06-17T14:34:18.786Z,55.40
2017-06-17T14:36:46.316Z,55.70
2017-06-17T14:39:14.624Z,56.00
2017-06-17T14:41:42.148Z,55.90
2017-06-17T14:44:09.688Z,56.30
2017-06-17T14:46:37.213Z,56.10
2017-06-17T14:49:04.755Z,56.60
2017-06-17T14:51:33.068Z,56.80
2017-06-17T14:54:00.590Z,57.10
2017-06-17T14:56:28.131Z,57.60
2017-06-17T14:58:55.659Z,57.60
2017-06-17T15:01:23.207Z,57.30
2017-06-17T15:03:50.733Z,57.70
2017-06-17T15:06:18.266Z,57.90
2017-06-17T15:08:45.811Z,57.70
2017-06-17T15:11:13.335Z,57.90
2017-06-17T15:13:40.883Z,58.30
2017-06-17T15:16:08.408Z,58.10
2017-06-17T15:18:35.951Z,57.80
2017-06-17T15:21:03.476Z,58.50
2017-06-17T15:23:31.028Z,58.00
2017-06-17T15:25:58.557Z,58.40
2017-06-17T15:28:26.850Z,58.50
2017-06-17T15:30:54.396Z,59.00
2017-06-17T15:33:21.965Z,58.80
2017-06-17T15:35:49.508Z,58.90
2017-06-17T15:38:17.799Z,59.20
2017-06-17T15:40:45.348Z,59.20
2017-06-17T15:43:12.880Z,58.80
2017-06-17T15:45:40.439Z,59.10
2017-06-17T15:48:07.964Z,59.50
2017-06-17T15:50:35.492Z,59.60
2017-06-17T15:53:03.036Z,59.80
2017-06-17T15:55:31.328Z,60.10
2017-06-17T15:57:58.875Z,60.20
2017-06-17T16:00:27.162Z,60.20
2017-06-17T16:02:54.704Z,60.00
2017-06-17T16:05:22.992Z,60.80
2017-06-17T16:07:51.310Z,61.10
2017-06-17T16:10:18.835Z,61.00
2017-06-17T16:12:46.387Z,60.90
2017-06-17T16:15:14.682Z,61.10
2017-06-17T16:17:42.240Z,61.00
2017-06-17T16:20:09.763Z,61.10
2017-06-17T16:22:37.291Z,61.00
2017-06-17T16:25:04.833Z,61.10
2017-06-17T16:27:32.360Z,61.20
2017-06-17T16:29:59.907Z,61.50
2017-06-17T16:32:27.436Z,61.50
2017-06-17T16:34:55.746Z,62.10
2017-06-17T16:37:23.270Z,61.80
2017-06-17T16:39:50.833Z,61.50
2017-06-17T16:42:18.359Z,61.70
2017-06-17T16:44:45.884Z,61.60
2017-06-17T16:47:13.432Z,61.60
2017-06-17T16:49:40.956Z,61.90
2017-06-17T16:52:08.498Z,62.20
2017-06-17T16:54:36.020Z,62.10
2017-06-17T16:57:03.559Z,62.40
2017-06-17T16:59:31.091Z,63.40
2017-06-17T17:01:59.404Z,62.70
2017-06-17T17:04:26.926Z,62.70
2017-06-17T17:06:54.478Z,63.20
2017-06-17T17:09:22.003Z,63.60
2017-06-17T17:11:49.524Z,63.90
2017-06-17T17:14:17.071Z,64.10
2017-06-17T17:16:45.365Z,65.20
2017-06-17T17:19:12.916Z,65.20
2017-06-17T17:21:41.251Z,66.30
2017-06-17T17:24:08.791Z,66.20
2017-06-17T17:26:36.311Z,66.00
2017-06-17T17:29:03.869Z,66.30
2017-06-17T17:31:32.167Z,66.40
2017-06-17T17:34:00.484Z,66.60
2017-06-17T17:36:28.018Z,66.40
2017-06-17T17:38:55.543Z,66.40
2017-06-17T17:41:23.855Z,66.80
2017-06-17T17:43:51.379Z,66.70
2017-06-17T17:46:19.692Z,67.70
2017-06-17T17:48:47.214Z,67.70
2017-06-17T17:51:15.522Z,68.70
2017-06-17T17:53:43.048Z,68.70
2017-06-17T17:56:11.379Z,69.60
2017-06-17T17:58:38.906Z,68.80
2017-06-17T18:01:07.200Z,68.90
2017-06-17T18:03:34.754Z,68.80
2017-06-17T18:06:03.048Z,69.20
2017-06-17T18:08:30.595Z,69.00
2017-06-17T18:10:58.883Z,69.20
2017-06-17T18:13:26.430Z,69.20
2017-06-17T18:15:54.727Z,69.20
2017-06-17T18:18:22.296Z,69.20
2017-06-17T18:20:49.823Z,69.30
2017-06-17T18:23:18.116Z,69.00
2017-06-17T18:25:45.659Z,69.00
2017-06-17T18:28:13.191Z,69.50
2017-06-17T18:30:40.740Z,69.80
2017-06-17T18:33:09.031Z,70.30
2017-06-17T18:35:36.579Z,70.20
2017-06-17T18:38:04.870Z,70.40
2017-06-17T18:40:32.423Z,70.40
2017-06-17T18:43:00.719Z,70.70
2017-06-17T18:45:28.247Z,70.70
2017-06-17T18:47:56.554Z,71.20
2017-06-17T18:50:24.080Z,71.20
2017-06-17T18:52:51.622Z,71.40
2017-06-17T18:55:19.151Z,71.90
2017-06-17T18:57:46.729Z,72.00
2017-06-17T19:00:14.256Z,72.10
2017-06-17T19:02:42.568Z,72.60
2017-06-17T19:05:10.860Z,72.90
2017-06-17T19:07:38.419Z,72.80
2017-06-17T19:10:05.952Z,73.20
2017-06-17T19:12:34.246Z,73.70
2017-06-17T19:15:01.792Z,73.70
2017-06-17T19:17:29.323Z,74.00
2017-06-17T19:19:56.874Z,74.20
2017-06-17T19:22:25.166Z,74.40
2017-06-17T19:24:52.725Z,74.40
2017-06-17T19:27:21.015Z,74.80
2017-06-17T19:29:48.575Z,74.80
2017-06-17T19:32:16.103Z,75.00
2017-06-17T19:34:43.627Z,75.00
2017-06-17T19:37:11.182Z,74.70
2017-06-17T19:39:38.708Z,74.50
2017-06-17T19:42:06.258Z,74.80
2017-06-17T19:44:33.784Z,74.80
2017-06-17T19:47:01.327Z,74.90
2017-06-17T19:49:28.863Z,75.00
2017-06-17T19:51:56.892Z,75.00
2017-06-17T19:54:24.415Z,75.40
2017-06-17T19:56:51.944Z,75.40
2017-06-17T19:59:19.491Z,75.60
2017-06-17T20:01:47.016Z,75.60
2017-06-17T20:04:14.559Z,75.80
2017-06-17T20:06:42.848Z,76.00
2017-06-17T20:09:11.167Z,76.20
2017-06-17T20:11:38.700Z,76.20
2017-06-17T20:14:06.255Z,76.10
2017-06-17T20:16:33.775Z,76.20
2017-06-17T20:19:01.299Z,76.40
2017-06-17T20:21:44.672Z,76.20
2017-06-17T20:24:17.887Z,76.20
2017-06-17T20:26:46.180Z,76.40
2017-06-17T20:29:14.471Z,77.20
2017-06-17T20:31:42.011Z,76.30
2017-06-17T20:34:09.539Z,76.40
2017-06-17T20:36:37.091Z,77.20
2017-06-17T20:39:04.621Z,76.40
2017-06-17T20:41:32.168Z,76.60
2017-06-17T20:43:59.695Z,77.50
2017-06-17T20:46:27.273Z,78.10
2017-06-17T20:48:54.810Z,78.40
2017-06-17T20:51:22.367Z,78.90
2017-06-17T20:53:49.887Z,79.40
2017-06-17T20:56:17.408Z,79.80
2017-06-17T20:58:44.955Z,79.80
2017-06-17T21:01:12.479Z,80.20
2017-06-17T21:03:40.023Z,79.90
2017-06-17T21:06:07.543Z,79.90
2017-06-17T21:08:35.087Z,80.30
2017-06-17T21:11:03.376Z,80.20
2017-06-17T21:13:30.923Z,79.40
2017-06-17T21:15:59.212Z,79.10
2017-06-17T21:18:26.771Z,79.10
2017-06-17T21:20:54.296Z,78.80
2017-06-17T21:23:21.819Z,78.70
2017-06-17T21:25:49.363Z,78.80
2017-06-17T21:28:16.896Z,79.00
2017-06-17T21:30:44.441Z,79.80
2017-06-17T21:33:11.967Z,79.60
2017-06-17T21:35:39.511Z,80.00
2017-06-17T21:38:07.043Z,80.50
2017-06-17T21:40:34.586Z,80.60
2017-06-17T21:43:02.879Z,80.70
2017-06-17T21:45:31.203Z,80.30
2017-06-17T21:47:58.726Z,80.20
2017-06-17T21:50:26.254Z,80.30
2017-06-17T21:52:53.798Z,80.70
2017-06-17T21:55:22.147Z,81.10
2017-06-17T21:57:49.691Z,81.00
2017-06-17T22:00:17.218Z,81.10
2017-06-17T22:02:45.526Z,82.00
2017-06-17T22:05:13.046Z,81.90
2017-06-17T22:07:40.591Z,82.60
2017-06-17T22:10:08.883Z,82.20
2017-06-17T22:12:36.439Z,82.00
2017-06-17T22:15:04.728Z,81.70
2017-06-17T22:17:32.256Z,81.70
2017-06-17T22:19:59.803Z,81.70
2017-06-17T22:22:27.330Z,81.40
2017-06-17T22:24:55.640Z,81.60
2017-06-17T22:27:23.166Z,81.60
2017-06-17T22:29:51.475Z,82.20
2017-06-17T22:32:18.999Z,82.20
2017-06-17T22:34:47.309Z,81.50
2017-06-17T22:37:14.830Z,81.30
2017-06-17T22:39:43.142Z,80.80
2017-06-17T22:42:10.667Z,80.70
2017-06-17T22:44:38.192Z,80.80
2017-06-17T22:47:05.736Z,80.60
2017-06-17T22:49:33.264Z,81.10
2017-06-17T22:52:00.806Z,81.30
2017-06-17T22:54:29.094Z,80.90
2017-06-17T22:56:56.638Z,80.90
2017-06-17T22:59:24.160Z,80.40
2017-06-17T23:01:51.709Z,80.90
2017-06-17T23:04:19.234Z,81.50
2017-06-17T23:06:46.791Z,81.30
2017-06-17T23:09:14.318Z,81.40
2017-06-17T23:11:41.844Z,81.30
2017-06-17T23:14:09.387Z,81.30
2017-06-17T23:16:36.915Z,81.70
2017-06-17T23:19:04.456Z,81.70
2017-06-17T23:21:31.984Z,81.50
2017-06-17T23:23:59.523Z,81.30
2017-06-17T23:26:27.047Z,81.30
2017-06-17T23:28:55.360Z,82.10
2017-06-17T23:31:22.884Z,82.00
2017-06-17T23:33:51.179Z,82.70
2017-06-17T23:36:18.723Z,82.70
2017-06-17T23:38:47.011Z,83.30
2017-06-17T23:41:14.559Z,83.30
2017-06-17T23:43:42.850Z,83.90
2017-06-17T23:46:10.395Z,83.90
2017-06-17T23:48:37.914Z,83.50
2017-06-17T23:51:05.459Z,83.30
2017-06-17T23:53:33.751Z,83.00
2017-06-17T23:56:01.336Z,83.00
2017-06-17T23:58:28.881Z,83.00
